sensor_id;sensor_type;location;lat;lon;timestamp;pressure;altitude;pressure_sealevel;temperature;humidity
23361;BME280;11852;50.082;18.554;2023-04-19T00:00:49;98843.5;;;11.81;85.19
23361;BME280;11852;50.082;18.554;2023-04-19T00:01:57;98841.5;;;11.84;85.07
23361;BME280;11852;50.082;18.554;2023-04-19T00:03:04;98841.5;;;11.71;85.58
23361;BME280;11852;50.082;18.554;2023-04-19T00:04:11;98840.0;;;11.84;85.08
23361;BME280;11852;50.082;18.554;2023-04-19T00:05:18;98838.0;;;11.8;85.15
23361;BME280;11852;50.082;18.554;2023-04-19T00:06:25;98838.5;;;11.63;85.71
23361;BME280;11852;50.082;18.554;2023-04-19T00:07:32;98838.5;;;11.49;86.05
23361;BME280;11852;50.082;18.554;2023-04-19T00:08:39;98837.0;;;11.51;85.87
23361;BME280;11852;50.082;18.554;2023-04-19T00:09:46;98835.0;;;11.55;85.79
23361;BME280;11852;50.082;18.554;2023-04-19T00:10:53;98836.5;;;11.35;86.37
23361;BME280;11852;50.082;18.554;2023-04-19T00:11:59;98835.5;;;11.54;85.72
23361;BME280;11852;50.082;18.554;2023-04-19T00:13:06;98833.5;;;11.68;85.45
23361;BME280;11852;50.082;18.554;2023-04-19T00:14:13;98832.99;;;11.74;85.38
23361;BME280;11852;50.082;18.554;2023-04-19T00:15:20;98832.0;;;11.74;85.32
23361;BME280;11852;50.082;18.554;2023-04-19T00:16:27;98830.0;;;11.74;85.13
23361;BME280;11852;50.082;18.554;2023-04-19T00:17:34;98827.5;;;11.63;85.46
23361;BME280;11852;50.082;18.554;2023-04-19T00:18:41;98827.0;;;11.68;85.37
23361;BME280;11852;50.082;18.554;2023-04-19T00:19:48;98827.0;;;11.68;85.44
23361;BME280;11852;50.082;18.554;2023-04-19T00:20:55;98823.5;;;11.69;85.36
23361;BME280;11852;50.082;18.554;2023-04-19T01:25:09;98751.5;;;11.09;86.35
23361;BME280;11852;50.082;18.554;2023-04-19T01:26:15;98754.5;;;10.95;86.79
23361;BME280;11852;50.082;18.554;2023-04-19T01:27:22;98751.5;;;11.11;86.31
23361;BME280;11852;50.082;18.554;2023-04-19T01:28:29;98748.0;;;11.2;86.24
23361;BME280;11852;50.082;18.554;2023-04-19T01:29:37;98747.0;;;11.22;86.14
23361;BME280;11852;50.082;18.554;2023-04-19T01:30:44;98746.0;;;11.26;85.97
23361;BME280;11852;50.082;18.554;2023-04-19T01:31:51;98746.0;;;11.21;86.15
23361;BME280;11852;50.082;18.554;2023-04-19T01:32:57;98739.5;;;11.27;85.86
23361;BME280;11852;50.082;18.554;2023-04-19T01:34:04;98740.0;;;11.27;85.86
23361;BME280;11852;50.082;18.554;2023-04-19T01:35:11;98738.5;;;11.36;85.62
23361;BME280;11852;50.082;18.554;2023-04-19T01:36:18;98738.0;;;11.1;86.02
23361;BME280;11852;50.082;18.554;2023-04-19T01:37:25;98732.99;;;11.16;85.88
23361;BME280;11852;50.082;18.554;2023-04-19T01:38:32;98730.5;;;11.26;85.74
23361;BME280;11852;50.082;18.554;2023-04-19T01:39:38;98729.0;;;11.36;85.56
23361;BME280;11852;50.082;18.554;2023-04-19T01:40:45;98728.5;;;11.38;85.5
23361;BME280;11852;50.082;18.554;2023-04-19T01:41:52;98728.0;;;11.35;85.42
23361;BME280;11852;50.082;18.554;2023-04-19T01:42:59;98728.5;;;11.18;85.65
23361;BME280;11852;50.082;18.554;2023-04-19T01:44:06;98728.0;;;11.2;85.57
23361;BME280;11852;50.082;18.554;2023-04-19T01:45:12;98730.0;;;11.26;85.5
23361;BME280;11852;50.082;18.554;2023-04-19T01:46:20;98730.01;;;11.24;85.61
23361;BME280;11852;50.082;18.554;2023-04-19T01:47:27;98728.5;;;11.24;85.29
23361;BME280;11852;50.082;18.554;2023-04-19T01:48:34;98729.5;;;11.28;85.28
23361;BME280;11852;50.082;18.554;2023-04-19T01:49:41;98728.5;;;11.31;85.13
23361;BME280;11852;50.082;18.554;2023-04-19T01:50:47;98724.5;;;11.15;85.51
23361;BME280;11852;50.082;18.554;2023-04-19T01:51:54;98726.5;;;11.05;85.6
23361;BME280;11852;50.082;18.554;2023-04-19T01:53:01;98725.5;;;11.03;85.66
23361;BME280;11852;50.082;18.554;2023-04-19T01:54:08;98724.0;;;11.15;85.46
23361;BME280;11852;50.082;18.554;2023-04-19T01:55:15;98722.5;;;11.0;85.67
23361;BME280;11852;50.082;18.554;2023-04-19T01:56:22;98723.0;;;10.93;85.88
23361;BME280;11852;50.082;18.554;2023-04-19T01:57:28;98718.5;;;11.0;85.5
23361;BME280;11852;50.082;18.554;2023-04-19T01:58:35;98722.0;;;11.1;85.35
23361;BME280;11852;50.082;18.554;2023-04-19T01:59:42;98717.5;;;11.01;85.65
23361;BME280;11852;50.082;18.554;2023-04-19T02:00:49;98714.5;;;10.86;86.01
23361;BME280;11852;50.082;18.554;2023-04-19T02:01:56;98716.0;;;10.68;86.58
23361;BME280;11852;50.082;18.554;2023-04-19T02:03:03;98713.5;;;10.66;86.45
23361;BME280;11852;50.082;18.554;2023-04-19T02:04:10;98711.5;;;10.74;86.24
23361;BME280;11852;50.082;18.554;2023-04-19T02:05:17;98711.0;;;10.9;85.88
23361;BME280;11852;50.082;18.554;2023-04-19T02:06:23;98710.0;;;10.94;85.75
23361;BME280;11852;50.082;18.554;2023-04-19T02:07:30;98706.49;;;10.77;86.26
23361;BME280;11852;50.082;18.554;2023-04-19T02:08:37;98704.51;;;10.98;85.5
23361;BME280;11852;50.082;18.554;2023-04-19T02:09:44;98698.5;;;11.0;85.58
23361;BME280;11852;50.082;18.554;2023-04-19T02:10:51;98696.0;;;10.98;85.37
23361;BME280;11852;50.082;18.554;2023-04-19T02:11:58;98696.0;;;11.05;85.24
23361;BME280;11852;50.082;18.554;2023-04-19T02:13:05;98693.0;;;11.14;85.08
23361;BME280;11852;50.082;18.554;2023-04-19T02:14:12;98691.5;;;11.18;85.02
23361;BME280;11852;50.082;18.554;2023-04-19T02:15:19;98692.5;;;11.18;84.95
23361;BME280;11852;50.082;18.554;2023-04-19T02:16:28;98689.0;;;11.12;85.04
23361;BME280;11852;50.082;18.554;2023-04-19T02:17:35;98688.0;;;11.13;84.83
23361;BME280;11852;50.082;18.554;2023-04-19T02:18:42;98687.5;;;11.1;84.98
23361;BME280;11852;50.082;18.554;2023-04-19T02:19:49;98687.0;;;11.11;84.72
23361;BME280;11852;50.082;18.554;2023-04-19T02:20:57;98685.0;;;11.11;84.74
23361;BME280;11852;50.082;18.554;2023-04-19T02:22:03;98684.5;;;11.18;84.69
23361;BME280;11852;50.082;18.554;2023-04-19T02:23:10;98684.5;;;11.2;84.64
23361;BME280;11852;50.082;18.554;2023-04-19T02:24:16;98683.5;;;11.25;84.62
23361;BME280;11852;50.082;18.554;2023-04-19T02:25:23;98681.99;;;11.28;84.56
23361;BME280;11852;50.082;18.554;2023-04-19T02:26:30;98679.0;;;11.25;84.6
23361;BME280;11852;50.082;18.554;2023-04-19T02:27:37;98677.5;;;11.29;84.43
23361;BME280;11852;50.082;18.554;2023-04-19T02:28:44;98676.0;;;11.31;84.4
23361;BME280;11852;50.082;18.554;2023-04-19T02:29:51;98672.0;;;11.24;84.5
23361;BME280;11852;50.082;18.554;2023-04-19T02:30:58;98672.5;;;11.27;84.33
23361;BME280;11852;50.082;18.554;2023-04-19T02:32:04;98668.0;;;11.18;84.4
23361;BME280;11852;50.082;18.554;2023-04-19T02:33:11;98671.5;;;11.18;84.43
23361;BME280;11852;50.082;18.554;2023-04-19T02:34:18;98670.49;;;11.2;84.38
23361;BME280;11852;50.082;18.554;2023-04-19T02:35:25;98672.5;;;11.25;84.38
23361;BME280;11852;50.082;18.554;2023-04-19T02:36:31;98674.5;;;11.26;84.37
23361;BME280;11852;50.082;18.554;2023-04-19T02:37:38;98673.5;;;11.24;84.31
23361;BME280;11852;50.082;18.554;2023-04-19T02:38:45;98672.0;;;11.15;84.37
23361;BME280;11852;50.082;18.554;2023-04-19T02:39:53;98670.0;;;11.19;84.33
23361;BME280;11852;50.082;18.554;2023-04-19T02:41:00;98669.0;;;11.14;84.52
23361;BME280;11852;50.082;18.554;2023-04-19T02:42:07;98667.51;;;11.13;84.46
23361;BME280;11852;50.082;18.554;2023-04-19T02:43:14;98666.0;;;11.05;84.49
23361;BME280;11852;50.082;18.554;2023-04-19T02:44:21;98666.5;;;10.99;84.67
23361;BME280;11852;50.082;18.554;2023-04-19T02:45:27;98667.01;;;10.98;84.65
23361;BME280;11852;50.082;18.554;2023-04-19T02:46:34;98664.0;;;11.02;84.62
23361;BME280;11852;50.082;18.554;2023-04-19T02:47:41;98663.0;;;10.96;84.79
23361;BME280;11852;50.082;18.554;2023-04-19T02:48:48;98664.0;;;11.0;84.67
23361;BME280;11852;50.082;18.554;2023-04-19T02:49:55;98662.0;;;10.85;84.9
23361;BME280;11852;50.082;18.554;2023-04-19T02:51:01;98663.5;;;10.92;84.8
23361;BME280;11852;50.082;18.554;2023-04-19T02:52:08;98660.5;;;10.93;84.81
23361;BME280;11852;50.082;18.554;2023-04-19T02:53:15;98661.5;;;10.96;84.61
23361;BME280;11852;50.082;18.554;2023-04-19T02:54:22;98657.99;;;10.93;84.61
23361;BME280;11852;50.082;18.554;2023-04-19T02:55:29;98657.99;;;10.95;84.59
23361;BME280;11852;50.082;18.554;2023-04-19T02:56:36;98655.01;;;10.95;84.61
23361;BME280;11852;50.082;18.554;2023-04-19T02:57:42;98654.0;;;10.77;84.93
23361;BME280;11852;50.082;18.554;2023-04-19T02:58:51;98656.5;;;10.79;84.9
23361;BME280;11852;50.082;18.554;2023-04-19T02:59:56;98659.0;;;10.84;84.68
23361;BME280;11852;50.082;18.554;2023-04-19T03:01:03;98659.5;;;10.82;84.74
23361;BME280;11852;50.082;18.554;2023-04-19T03:02:10;98656.0;;;10.83;84.65
23361;BME280;11852;50.082;18.554;2023-04-19T03:03:16;98655.51;;;10.86;84.63
23361;BME280;11852;50.082;18.554;2023-04-19T03:04:23;98654.51;;;10.76;84.84
23361;BME280;11852;50.082;18.554;2023-04-19T03:05:30;98652.5;;;10.69;84.92
23361;BME280;11852;50.082;18.554;2023-04-19T03:06:37;98648.5;;;10.8;84.71
23361;BME280;11852;50.082;18.554;2023-04-19T03:07:44;98649.0;;;10.8;84.79
23361;BME280;11852;50.082;18.554;2023-04-19T03:08:51;98644.0;;;10.77;84.74
23361;BME280;11852;50.082;18.554;2023-04-19T03:09:58;98639.5;;;10.54;85.47
23361;BME280;11852;50.082;18.554;2023-04-19T03:11:05;98636.5;;;10.55;85.49
23361;BME280;11852;50.082;18.554;2023-04-19T03:12:11;98630.5;;;10.64;85.1
23361;BME280;11852;50.082;18.554;2023-04-19T03:13:18;98629.0;;;10.62;85.15
23361;BME280;11852;50.082;18.554;2023-04-19T03:14:25;98626.5;;;10.66;84.99
23361;BME280;11852;50.082;18.554;2023-04-19T03:15:32;98626.5;;;10.75;84.83
23361;BME280;11852;50.082;18.554;2023-04-19T03:16:39;98624.5;;;10.78;84.82
23361;BME280;11852;50.082;18.554;2023-04-19T03:17:46;98623.5;;;10.84;84.68
23361;BME280;11852;50.082;18.554;2023-04-19T03:18:53;98623.0;;;10.86;84.63
23361;BME280;11852;50.082;18.554;2023-04-19T03:19:59;98622.0;;;10.86;84.57
23361;BME280;11852;50.082;18.554;2023-04-19T03:21:06;98621.0;;;10.8;84.71
23361;BME280;11852;50.082;18.554;2023-04-19T03:22:13;98619.0;;;10.68;84.89
23361;BME280;11852;50.082;18.554;2023-04-19T03:23:20;98618.51;;;10.63;84.87
23361;BME280;11852;50.082;18.554;2023-04-19T03:24:27;98619.5;;;10.48;85.25
23361;BME280;11852;50.082;18.554;2023-04-19T03:25:34;98619.0;;;10.58;84.9
23361;BME280;11852;50.082;18.554;2023-04-19T03:26:41;98616.5;;;10.47;85.01
23361;BME280;11852;50.082;18.554;2023-04-19T03:27:47;98618.01;;;10.65;84.67
23361;BME280;11852;50.082;18.554;2023-04-19T03:28:54;98616.5;;;10.68;84.66
23361;BME280;11852;50.082;18.554;2023-04-19T03:30:01;98614.0;;;10.7;84.64
23361;BME280;11852;50.082;18.554;2023-04-19T03:31:08;98616.5;;;10.76;84.57
23361;BME280;11852;50.082;18.554;2023-04-19T03:32:15;98617.51;;;10.8;84.51
23361;BME280;11852;50.082;18.554;2023-04-19T03:33:22;98617.0;;;10.82;84.43
23361;BME280;11852;50.082;18.554;2023-04-19T03:34:28;98620.0;;;10.65;84.94
23361;BME280;11852;50.082;18.554;2023-04-19T03:35:35;98615.5;;;10.63;84.86
23361;BME280;11852;50.082;18.554;2023-04-19T03:36:42;98617.51;;;10.69;84.74
23361;BME280;11852;50.082;18.554;2023-04-19T03:37:49;98617.01;;;10.8;84.54
23361;BME280;11852;50.082;18.554;2023-04-19T03:38:56;98617.51;;;10.63;85.1
23361;BME280;11852;50.082;18.554;2023-04-19T03:40:03;98619.0;;;10.59;84.92
23361;BME280;11852;50.082;18.554;2023-04-19T03:41:18;98616.5;;;10.66;84.73
23361;BME280;11852;50.082;18.554;2023-04-19T03:42:24;98616.0;;;10.47;85.21
23361;BME280;11852;50.082;18.554;2023-04-19T03:43:31;98614.5;;;10.42;85.31
23361;BME280;11852;50.082;18.554;2023-04-19T03:44:38;98612.0;;;10.32;85.6
23361;BME280;11852;50.082;18.554;2023-04-19T03:45:45;98613.0;;;10.35;85.55
23361;BME280;11852;50.082;18.554;2023-04-19T03:46:52;98613.0;;;10.45;85.14
23361;BME280;11852;50.082;18.554;2023-04-19T03:47:59;98611.0;;;10.28;85.72
23361;BME280;11852;50.082;18.554;2023-04-19T03:49:05;98612.0;;;10.43;85.19
23361;BME280;11852;50.082;18.554;2023-04-19T03:50:12;98608.5;;;10.52;85.02
23361;BME280;11852;50.082;18.554;2023-04-19T03:51:19;98607.49;;;10.61;84.83
23361;BME280;11852;50.082;18.554;2023-04-19T03:52:26;98606.5;;;10.67;84.72
23361;BME280;11852;50.082;18.554;2023-04-19T03:53:33;98606.5;;;10.57;84.96
23361;BME280;11852;50.082;18.554;2023-04-19T03:54:40;98606.0;;;10.51;85.04
23361;BME280;11852;50.082;18.554;2023-04-19T03:55:46;98606.0;;;10.35;85.32
23361;BME280;11852;50.082;18.554;2023-04-19T03:56:53;98606.49;;;10.45;85.15
23361;BME280;11852;50.082;18.554;2023-04-19T03:58:01;98604.0;;;10.49;84.98
23361;BME280;11852;50.082;18.554;2023-04-19T03:59:08;98605.01;;;10.53;84.79
23361;BME280;11852;50.082;18.554;2023-04-19T04:00:15;98604.5;;;10.25;85.52
23361;BME280;11852;50.082;18.554;2023-04-19T04:01:22;98601.5;;;10.27;85.31
23361;BME280;11852;50.082;18.554;2023-04-19T04:02:28;98606.0;;;10.32;85.26
23361;BME280;11852;50.082;18.554;2023-04-19T04:03:35;98602.0;;;10.33;85.21
23361;BME280;11852;50.082;18.554;2023-04-19T04:04:42;98603.0;;;10.42;84.93
23361;BME280;11852;50.082;18.554;2023-04-19T04:05:49;98602.5;;;10.44;84.87
23361;BME280;11852;50.082;18.554;2023-04-19T04:06:56;98604.5;;;10.37;84.93
23361;BME280;11852;50.082;18.554;2023-04-19T04:08:02;98603.0;;;10.34;85.04
23361;BME280;11852;50.082;18.554;2023-04-19T04:09:09;98598.5;;;10.52;84.71
23361;BME280;11852;50.082;18.554;2023-04-19T04:10:16;98602.5;;;10.51;84.8
23361;BME280;11852;50.082;18.554;2023-04-19T04:11:23;98600.5;;;10.49;84.71
23361;BME280;11852;50.082;18.554;2023-04-19T04:12:30;98600.0;;;10.48;84.77
23361;BME280;11852;50.082;18.554;2023-04-19T04:13:37;98599.5;;;10.43;84.93
23361;BME280;11852;50.082;18.554;2023-04-19T04:14:43;98599.0;;;10.1;85.93
23361;BME280;11852;50.082;18.554;2023-04-19T04:15:50;98603.0;;;10.14;85.74
23361;BME280;11852;50.082;18.554;2023-04-19T04:16:57;98605.01;;;10.07;85.93
23361;BME280;11852;50.082;18.554;2023-04-19T04:18:04;98607.0;;;10.09;85.82
23361;BME280;11852;50.082;18.554;2023-04-19T04:19:11;98606.99;;;10.25;85.54
23361;BME280;11852;50.082;18.554;2023-04-19T04:20:18;98607.49;;;10.31;85.54
23361;BME280;11852;50.082;18.554;2023-04-19T04:21:25;98612.0;;;10.32;85.42
23361;BME280;11852;50.082;18.554;2023-04-19T04:22:31;98608.5;;;10.34;85.48
23361;BME280;11852;50.082;18.554;2023-04-19T04:23:40;98607.99;;;10.17;85.82
23361;BME280;11852;50.082;18.554;2023-04-19T04:24:47;98610.0;;;10.25;85.53
23361;BME280;11852;50.082;18.554;2023-04-19T04:25:57;98611.5;;;10.18;85.81
23361;BME280;11852;50.082;18.554;2023-04-19T04:27:04;98612.5;;;9.7;87.44
23361;BME280;11852;50.082;18.554;2023-04-19T04:28:10;98612.5;;;9.76;87.13
23361;BME280;11852;50.082;18.554;2023-04-19T04:29:17;98614.0;;;9.88;86.64
23361;BME280;11852;50.082;18.554;2023-04-19T04:30:24;98616.0;;;9.97;86.56
23361;BME280;11852;50.082;18.554;2023-04-19T04:31:31;98609.5;;;9.89;86.6
23361;BME280;11852;50.082;18.554;2023-04-19T04:32:38;98613.0;;;9.89;86.54
23361;BME280;11852;50.082;18.554;2023-04-19T04:33:45;98612.0;;;9.74;86.68
23361;BME280;11852;50.082;18.554;2023-04-19T04:34:52;98616.0;;;9.88;86.43
23361;BME280;11852;50.082;18.554;2023-04-19T04:35:58;98615.0;;;9.76;86.78
23361;BME280;11852;50.082;18.554;2023-04-19T04:37:05;98614.5;;;9.7;86.96
23361;BME280;11852;50.082;18.554;2023-04-19T04:38:12;98616.0;;;9.86;86.44
23361;BME280;11852;50.082;18.554;2023-04-19T04:39:19;98615.5;;;9.84;86.31
23361;BME280;11852;50.082;18.554;2023-04-19T04:40:26;98617.51;;;9.95;86.03
23361;BME280;11852;50.082;18.554;2023-04-19T04:41:33;98614.0;;;9.83;86.24
23361;BME280;11852;50.082;18.554;2023-04-19T04:42:40;98614.5;;;9.89;86.11
23361;BME280;11852;50.082;18.554;2023-04-19T04:43:46;98614.5;;;9.88;86.13
23361;BME280;11852;50.082;18.554;2023-04-19T04:44:53;98616.0;;;9.99;85.85
23361;BME280;11852;50.082;18.554;2023-04-19T04:46:00;98616.5;;;9.88;86.13
23361;BME280;11852;50.082;18.554;2023-04-19T04:47:07;98616.5;;;9.93;85.96
23361;BME280;11852;50.082;18.554;2023-04-19T04:48:14;98615.0;;;9.98;85.87
23361;BME280;11852;50.082;18.554;2023-04-19T04:49:20;98612.5;;;9.94;86.14
23361;BME280;11852;50.082;18.554;2023-04-19T04:50:27;98611.0;;;9.85;86.15
23361;BME280;11852;50.082;18.554;2023-04-19T04:51:34;98613.5;;;9.74;86.43
23361;BME280;11852;50.082;18.554;2023-04-19T04:52:41;98616.0;;;9.63;86.71
23361;BME280;11852;50.082;18.554;2023-04-19T04:53:48;98617.51;;;9.68;86.68
23361;BME280;11852;50.082;18.554;2023-04-19T04:54:55;98617.5;;;9.82;86.35
23361;BME280;11852;50.082;18.554;2023-04-19T04:56:02;98617.01;;;9.9;86.18
23361;BME280;11852;50.082;18.554;2023-04-19T04:57:09;98616.5;;;9.95;85.99
23361;BME280;11852;50.082;18.554;2023-04-19T04:58:15;98614.5;;;9.92;86.1
23361;BME280;11852;50.082;18.554;2023-04-19T04:59:22;98612.5;;;9.83;86.19
23361;BME280;11852;50.082;18.554;2023-04-19T05:00:29;98612.5;;;9.86;86.1
23361;BME280;11852;50.082;18.554;2023-04-19T05:01:36;98611.5;;;9.79;86.38
23361;BME280;11852;50.082;18.554;2023-04-19T05:02:43;98609.5;;;9.7;86.45
23361;BME280;11852;50.082;18.554;2023-04-19T05:03:50;98611.5;;;9.8;86.14
23361;BME280;11852;50.082;18.554;2023-04-19T05:04:56;98610.5;;;9.92;86.01
23361;BME280;11852;50.082;18.554;2023-04-19T05:06:03;98611.0;;;9.87;86.1
23361;BME280;11852;50.082;18.554;2023-04-19T05:07:10;98610.0;;;9.92;85.88
23361;BME280;11852;50.082;18.554;2023-04-19T05:08:17;98609.5;;;9.88;85.99
23361;BME280;11852;50.082;18.554;2023-04-19T05:09:24;98606.0;;;9.83;86.04
23361;BME280;11852;50.082;18.554;2023-04-19T05:10:31;98606.0;;;9.82;86.19
23361;BME280;11852;50.082;18.554;2023-04-19T05:11:37;98606.99;;;9.75;86.36
23361;BME280;11852;50.082;18.554;2023-04-19T05:12:44;98604.0;;;9.79;86.29
23361;BME280;11852;50.082;18.554;2023-04-19T05:13:51;98606.0;;;9.71;86.38
23361;BME280;11852;50.082;18.554;2023-04-19T05:14:58;98600.0;;;9.69;86.54
23361;BME280;11852;50.082;18.554;2023-04-19T05:16:05;98604.0;;;9.85;86.13
23361;BME280;11852;50.082;18.554;2023-04-19T05:17:11;98604.5;;;9.81;86.31
23361;BME280;11852;50.082;18.554;2023-04-19T05:18:18;98606.5;;;9.74;86.35
23361;BME280;11852;50.082;18.554;2023-04-19T05:19:25;98606.99;;;9.53;86.96
23361;BME280;11852;50.082;18.554;2023-04-19T05:20:35;98602.0;;;9.69;86.38
23361;BME280;11852;50.082;18.554;2023-04-19T05:21:42;98604.5;;;9.68;86.35
23361;BME280;11852;50.082;18.554;2023-04-19T05:22:48;98600.5;;;9.69;86.2
23361;BME280;11852;50.082;18.554;2023-04-19T05:23:55;98599.0;;;9.73;86.32
23361;BME280;11852;50.082;18.554;2023-04-19T05:25:02;98600.5;;;9.64;86.38
23361;BME280;11852;50.082;18.554;2023-04-19T05:26:12;98600.0;;;9.43;87.03
23361;BME280;11852;50.082;18.554;2023-04-19T05:27:19;98602.0;;;9.57;86.48
23361;BME280;11852;50.082;18.554;2023-04-19T05:28:25;98605.0;;;9.74;86.21
23361;BME280;11852;50.082;18.554;2023-04-19T05:29:32;98600.0;;;9.74;86.29
23361;BME280;11852;50.082;18.554;2023-04-19T05:30:39;98603.0;;;9.63;86.61
23361;BME280;11852;50.082;18.554;2023-04-19T05:31:46;98598.5;;;9.78;86.17
23361;BME280;11852;50.082;18.554;2023-04-19T05:32:53;98598.5;;;9.74;86.3
23361;BME280;11852;50.082;18.554;2023-04-19T05:34:00;98598.0;;;9.73;86.33
23361;BME280;11852;50.082;18.554;2023-04-19T05:35:07;98601.5;;;9.68;86.4
23361;BME280;11852;50.082;18.554;2023-04-19T05:36:14;98597.0;;;9.75;86.07
23361;BME280;11852;50.082;18.554;2023-04-19T05:37:21;98598.0;;;9.55;86.78
23361;BME280;11852;50.082;18.554;2023-04-19T05:38:27;98598.5;;;9.68;86.3
23361;BME280;11852;50.082;18.554;2023-04-19T05:39:34;98595.49;;;9.69;86.23
23361;BME280;11852;50.082;18.554;2023-04-19T05:40:41;98594.0;;;9.68;86.29
23361;BME280;11852;50.082;18.554;2023-04-19T05:41:48;98594.99;;;9.75;86.08
23361;BME280;11852;50.082;18.554;2023-04-19T05:42:55;98598.0;;;9.68;86.22
23361;BME280;11852;50.082;18.554;2023-04-19T05:44:02;98591.0;;;9.76;86.06
23361;BME280;11852;50.082;18.554;2023-04-19T05:45:09;98594.49;;;9.82;86.01
23361;BME280;11852;50.082;18.554;2023-04-19T05:46:16;98593.01;;;9.79;86.04
23361;BME280;11852;50.082;18.554;2023-04-19T05:47:23;98594.0;;;9.68;86.4
23361;BME280;11852;50.082;18.554;2023-04-19T05:48:29;98594.99;;;9.64;86.32
23361;BME280;11852;50.082;18.554;2023-04-19T05:49:36;98593.01;;;9.76;86.04
23361;BME280;11852;50.082;18.554;2023-04-19T05:50:43;98588.5;;;9.85;86.06
23361;BME280;11852;50.082;18.554;2023-04-19T05:51:50;98590.5;;;9.81;86.26
23361;BME280;11852;50.082;18.554;2023-04-19T05:52:57;98589.5;;;9.69;86.52
23361;BME280;11852;50.082;18.554;2023-04-19T05:54:04;98586.5;;;9.76;86.26
23361;BME280;11852;50.082;18.554;2023-04-19T05:55:11;98589.5;;;9.67;86.6
23361;BME280;11852;50.082;18.554;2023-04-19T05:56:18;98590.5;;;9.65;86.46
23361;BME280;11852;50.082;18.554;2023-04-19T05:57:25;98591.0;;;9.77;86.1
23361;BME280;11852;50.082;18.554;2023-04-19T05:58:32;98593.01;;;9.66;86.55
23361;BME280;11852;50.082;18.554;2023-04-19T05:59:38;98590.5;;;9.68;86.44
23361;BME280;11852;50.082;18.554;2023-04-19T06:00:45;98588.5;;;9.74;86.35
23361;BME280;11852;50.082;18.554;2023-04-19T06:01:52;98588.0;;;9.79;86.38
23361;BME280;11852;50.082;18.554;2023-04-19T06:02:59;98588.0;;;9.89;86.18
23361;BME280;11852;50.082;18.554;2023-04-19T06:04:06;98591.5;;;9.94;86.03
23361;BME280;11852;50.082;18.554;2023-04-19T06:05:13;98589.0;;;9.82;86.32
23361;BME280;11852;50.082;18.554;2023-04-19T06:06:20;98587.0;;;9.75;86.35
23361;BME280;11852;50.082;18.554;2023-04-19T06:07:27;98585.5;;;9.88;86.01
23361;BME280;11852;50.082;18.554;2023-04-19T06:08:33;98589.5;;;9.9;86.16
23361;BME280;11852;50.082;18.554;2023-04-19T06:09:41;98584.5;;;9.82;86.1
23361;BME280;11852;50.082;18.554;2023-04-19T06:10:48;98584.5;;;9.74;86.17
23361;BME280;11852;50.082;18.554;2023-04-19T06:11:55;98584.5;;;9.76;86.14
23361;BME280;11852;50.082;18.554;2023-04-19T06:13:02;98584.5;;;9.53;86.82
23361;BME280;11852;50.082;18.554;2023-04-19T06:14:09;98586.5;;;9.75;86.23
23361;BME280;11852;50.082;18.554;2023-04-19T06:15:16;98587.5;;;9.92;86.06
23361;BME280;11852;50.082;18.554;2023-04-19T06:16:22;98590.5;;;9.97;85.98
23361;BME280;11852;50.082;18.554;2023-04-19T06:17:29;98590.0;;;9.99;85.99
23361;BME280;11852;50.082;18.554;2023-04-19T06:18:36;98595.49;;;10.02;85.65
23361;BME280;11852;50.082;18.554;2023-04-19T06:19:43;98594.5;;;9.77;86.24
23361;BME280;11852;50.082;18.554;2023-04-19T06:20:51;98593.0;;;9.77;85.99
23361;BME280;11852;50.082;18.554;2023-04-19T06:21:57;98594.0;;;9.8;85.93
23361;BME280;11852;50.082;18.554;2023-04-19T06:23:04;98597.0;;;9.54;86.21
23361;BME280;11852;50.082;18.554;2023-04-19T06:24:11;98598.5;;;9.55;86.28
23361;BME280;11852;50.082;18.554;2023-04-19T06:25:17;98601.0;;;9.48;86.52
23361;BME280;11852;50.082;18.554;2023-04-19T06:26:24;98599.5;;;9.41;86.49
23361;BME280;11852;50.082;18.554;2023-04-19T06:27:31;98602.0;;;9.51;86.21
23361;BME280;11852;50.082;18.554;2023-04-19T06:28:38;98599.5;;;9.55;86.19
23361;BME280;11852;50.082;18.554;2023-04-19T06:29:45;98600.5;;;9.47;86.44
23361;BME280;11852;50.082;18.554;2023-04-19T06:30:52;98601.5;;;9.6;85.87
23361;BME280;11852;50.082;18.554;2023-04-19T06:31:58;98600.0;;;9.61;85.76
23361;BME280;11852;50.082;18.554;2023-04-19T06:33:05;98601.0;;;9.62;85.85
23361;BME280;11852;50.082;18.554;2023-04-19T06:34:12;98601.5;;;9.58;85.57
23361;BME280;11852;50.082;18.554;2023-04-19T06:35:19;98601.0;;;9.48;85.72
23361;BME280;11852;50.082;18.554;2023-04-19T06:36:26;98603.0;;;9.49;85.73
23361;BME280;11852;50.082;18.554;2023-04-19T06:37:33;98601.5;;;9.57;85.72
23361;BME280;11852;50.082;18.554;2023-04-19T06:38:40;98598.5;;;9.49;86.08
23361;BME280;11852;50.082;18.554;2023-04-19T06:39:46;98597.0;;;9.43;86.04
23361;BME280;11852;50.082;18.554;2023-04-19T06:40:53;98596.5;;;9.59;85.64
23361;BME280;11852;50.082;18.554;2023-04-19T06:42:00;98594.99;;;9.59;85.82
23361;BME280;11852;50.082;18.554;2023-04-19T06:43:07;98600.0;;;9.57;85.82
23361;BME280;11852;50.082;18.554;2023-04-19T06:44:14;98600.0;;;9.46;85.76
23361;BME280;11852;50.082;18.554;2023-04-19T06:45:21;98603.5;;;9.37;86.18
23361;BME280;11852;50.082;18.554;2023-04-19T06:46:28;98606.99;;;9.49;85.79
23361;BME280;11852;50.082;18.554;2023-04-19T06:47:35;98606.0;;;9.57;85.6
23361;BME280;11852;50.082;18.554;2023-04-19T06:48:42;98609.5;;;9.55;85.63
23361;BME280;11852;50.082;18.554;2023-04-19T06:49:49;98604.0;;;9.49;85.82
23361;BME280;11852;50.082;18.554;2023-04-19T06:50:55;98609.0;;;9.59;85.57
23361;BME280;11852;50.082;18.554;2023-04-19T06:52:02;98607.99;;;9.63;85.46
23361;BME280;11852;50.082;18.554;2023-04-19T06:53:09;98606.99;;;9.55;85.75
23361;BME280;11852;50.082;18.554;2023-04-19T06:54:16;98609.5;;;9.65;85.35
23361;BME280;11852;50.082;18.554;2023-04-19T06:55:23;98610.5;;;9.62;85.51
23361;BME280;11852;50.082;18.554;2023-04-19T06:56:38;98606.5;;;9.6;85.53
23361;BME280;11852;50.082;18.554;2023-04-19T06:57:42;98606.0;;;9.4;86.12
23361;BME280;11852;50.082;18.554;2023-04-19T06:58:49;98607.49;;;9.43;86.05
23361;BME280;11852;50.082;18.554;2023-04-19T06:59:55;98603.5;;;9.19;86.42